createdAt,value
2023-03-29T00:00:46.449Z,48.15
2023-03-29T00:03:13.127Z,47.96
2023-03-29T00:05:39.783Z,48.09
2023-03-29T00:08:06.319Z,48.37
2023-03-29T00:10:32.880Z,47.82
2023-03-29T00:12:59.453Z,48.34
2023-03-29T00:15:25.980Z,48.13
2023-03-29T00:17:52.565Z,48.19
2023-03-29T00:20:19.133Z,48.36
2023-03-29T00:22:45.721Z,48.26
2023-03-29T00:25:12.298Z,48.26
2023-03-29T00:27:38.867Z,48.33
2023-03-29T00:30:05.429Z,48.22
2023-03-29T00:32:31.979Z,48.03
2023-03-29T00:34:58.551Z,48.31
2023-03-29T00:37:25.084Z,47.90
2023-03-29T00:39:51.644Z,48.23
2023-03-29T00:42:18.203Z,47.97
2023-03-29T00:44:44.760Z,48.14
2023-03-29T00:47:11.296Z,47.85
2023-03-29T00:49:37.862Z,47.66
2023-03-29T00:52:04.401Z,47.79
2023-03-29T00:54:30.943Z,47.83
2023-03-29T00:56:57.527Z,48.09
2023-03-29T00:59:24.117Z,47.89
2023-03-29T05:06:32.937Z,47.46
2023-03-29T05:08:59.490Z,47.24
2023-03-29T05:11:26.032Z,47.46
2023-03-29T05:13:52.560Z,47.66
2023-03-29T05:16:19.161Z,47.65
2023-03-29T05:18:45.735Z,47.42
2023-03-29T05:21:12.283Z,47.19
2023-03-29T05:23:38.808Z,47.62
2023-03-29T05:26:05.406Z,47.62
2023-03-29T05:28:31.979Z,47.52
2023-03-29T05:30:58.562Z,47.50
2023-03-29T05:33:25.110Z,47.56
2023-03-29T05:35:51.683Z,47.29
2023-03-29T05:38:18.531Z,47.22
2023-03-29T05:40:45.128Z,47.58
2023-03-29T05:43:11.679Z,47.40
2023-03-29T05:45:38.251Z,47.19
2023-03-29T05:48:04.878Z,47.76
2023-03-29T05:50:31.467Z,47.27
2023-03-29T05:52:57.999Z,46.99
2023-03-29T05:55:24.560Z,46.85
2023-03-29T05:57:51.108Z,46.56
2023-03-29T06:00:17.675Z,46.97
2023-03-29T06:02:44.288Z,47.39
2023-03-29T06:05:10.933Z,47.38
2023-03-29T06:07:37.475Z,47.19
2023-03-29T06:10:04.008Z,46.55
2023-03-29T06:12:30.562Z,46.92
2023-03-29T06:14:57.108Z,46.83
2023-03-29T06:17:23.646Z,47.03
2023-03-29T06:19:50.208Z,47.06
2023-03-29T06:22:16.760Z,46.75
2023-03-29T06:24:43.306Z,46.99
2023-03-29T06:27:09.842Z,46.98
2023-03-29T06:29:36.379Z,46.88
2023-03-29T06:32:02.935Z,46.66
2023-03-29T06:34:29.479Z,46.95
2023-03-29T06:36:56.035Z,46.95
2023-03-29T06:39:22.578Z,47.22
2023-03-29T06:41:49.107Z,47.30
2023-03-29T06:44:15.643Z,47.23
2023-03-29T06:46:42.244Z,46.92
2023-03-29T06:49:08.818Z,47.46
2023-03-29T06:51:35.358Z,47.66
2023-03-29T06:54:01.924Z,48.09
2023-03-29T06:56:28.559Z,48.39
2023-03-29T06:58:55.129Z,48.39
2023-03-29T07:01:21.845Z,48.21
2023-03-29T07:03:48.556Z,48.50
2023-03-29T07:06:15.113Z,48.67
2023-03-29T07:08:41.674Z,48.62
2023-03-29T07:11:08.245Z,48.71
2023-03-29T07:13:34.919Z,48.76
2023-03-29T07:16:01.542Z,48.68
2023-03-29T07:18:28.270Z,48.73
2023-03-29T07:20:54.819Z,48.56
2023-03-29T07:23:21.343Z,48.46
2023-03-29T07:25:47.897Z,48.61
2023-03-29T07:28:14.446Z,48.47
2023-03-29T07:30:41.028Z,48.60
2023-03-29T07:33:07.641Z,48.37
2023-03-29T07:35:34.346Z,48.44
2023-03-29T07:38:00.919Z,48.29
2023-03-29T07:40:27.482Z,48.31
2023-03-29T07:42:54.319Z,48.39
2023-03-29T07:45:25.982Z,48.31
2023-03-29T07:47:52.878Z,48.24
2023-03-29T07:50:19.479Z,48.05
2023-03-29T07:52:46.075Z,48.29
2023-03-29T07:55:12.605Z,48.22
2023-03-29T07:57:39.153Z,48.11
2023-03-29T08:00:05.709Z,48.12
2023-03-29T08:02:32.312Z,48.28
2023-03-29T08:04:58.916Z,48.24
2023-03-29T08:07:25.472Z,48.02
2023-03-29T08:09:52.019Z,48.30
2023-03-29T08:12:18.550Z,48.24
2023-03-29T08:14:45.094Z,48.53
2023-03-29T08:17:11.683Z,48.42
2023-03-29T08:19:38.305Z,48.34
2023-03-29T08:22:04.876Z,48.40
2023-03-29T08:24:31.436Z,48.06
2023-03-29T08:26:57.992Z,47.95
2023-03-29T08:29:24.529Z,48.46
2023-03-29T08:31:51.095Z,48.44
2023-03-29T08:34:17.641Z,48.52
2023-03-29T08:36:44.177Z,48.54
2023-03-29T08:39:10.737Z,48.16
2023-03-29T08:41:37.289Z,48.29
2023-03-29T08:44:03.822Z,48.49
2023-03-29T08:46:35.140Z,48.34
2023-03-29T08:49:02.316Z,47.79
2023-03-29T08:51:28.863Z,48.30
2023-03-29T08:53:55.398Z,47.85
2023-03-29T08:56:21.937Z,47.86
2023-03-29T08:58:48.477Z,48.04
2023-03-29T09:01:15.123Z,47.40
2023-03-29T09:03:41.861Z,47.98
2023-03-29T09:06:08.431Z,48.21
2023-03-29T09:08:34.988Z,47.81
2023-03-29T09:11:01.704Z,48.02
2023-03-29T09:13:28.480Z,47.22
2023-03-29T09:15:55.231Z,48.05
2023-03-29T09:18:21.808Z,47.63
2023-03-29T09:20:48.356Z,48.04
2023-03-29T09:23:14.904Z,47.99
2023-03-29T09:25:50.968Z,47.98
2023-03-29T09:28:19.556Z,47.53
2023-03-29T09:30:46.124Z,47.49
2023-03-29T09:33:12.746Z,47.89
2023-03-29T09:35:39.368Z,47.47
2023-03-29T09:38:05.939Z,47.71
2023-03-29T09:40:32.495Z,47.62
2023-03-29T09:42:59.060Z,47.39
2023-03-29T09:45:25.637Z,47.19
2023-03-29T09:47:52.278Z,47.22
2023-03-29T09:50:30.252Z,47.69
2023-03-29T09:52:57.845Z,47.45
2023-03-29T09:55:24.421Z,47.58
2023-03-29T09:57:51.165Z,47.91
2023-03-29T10:00:17.742Z,47.52
2023-03-29T10:02:44.349Z,47.29
2023-03-29T10:05:10.889Z,46.66
2023-03-29T10:07:37.433Z,47.08
2023-03-29T10:10:03.988Z,47.10
2023-03-29T10:12:30.534Z,47.21
2023-03-29T10:14:57.083Z,47.18
2023-03-29T10:17:23.679Z,47.10
2023-03-29T10:19:50.310Z,47.38
2023-03-29T10:22:16.875Z,47.69
2023-03-29T10:24:43.433Z,47.55
2023-03-29T10:27:09.995Z,47.39
2023-03-29T10:29:36.528Z,47.91
2023-03-29T10:32:03.130Z,47.55
2023-03-29T10:34:29.720Z,46.88
2023-03-29T10:36:56.262Z,46.70
2023-03-29T10:39:22.856Z,47.00
2023-03-29T10:41:49.392Z,46.76
2023-03-29T10:44:15.943Z,46.65
2023-03-29T10:46:42.538Z,47.02
2023-03-29T10:49:09.215Z,47.42
2023-03-29T10:51:35.772Z,47.27
2023-03-29T10:54:02.331Z,46.81
2023-03-29T10:56:28.883Z,46.62
2023-03-29T10:58:55.440Z,46.66
2023-03-29T11:01:22.040Z,46.38
2023-03-29T11:03:48.689Z,47.18
2023-03-29T11:06:15.291Z,46.40
2023-03-29T11:08:41.853Z,46.15
2023-03-29T11:11:08.406Z,46.42
2023-03-29T11:13:34.949Z,46.52
2023-03-29T11:16:01.581Z,46.53
2023-03-29T11:18:28.195Z,46.68
2023-03-29T11:20:54.741Z,46.65
2023-03-29T11:23:21.287Z,46.65
2023-03-29T11:25:47.872Z,46.74
2023-03-29T11:28:14.411Z,46.95
2023-03-29T11:30:40.977Z,47.13
2023-03-29T11:33:07.588Z,47.10
2023-03-29T11:35:34.154Z,47.15
2023-03-29T11:38:00.717Z,47.22
2023-03-29T11:40:27.283Z,46.91
2023-03-29T11:42:53.848Z,47.04
2023-03-29T11:45:20.400Z,47.16
2023-03-29T11:47:47.096Z,47.46
2023-03-29T11:50:13.674Z,47.48
2023-03-29T11:52:40.282Z,47.07
2023-03-29T11:55:06.853Z,46.08
2023-03-29T11:57:33.399Z,46.83
2023-03-29T11:59:59.943Z,46.90
2023-03-29T12:02:26.600Z,46.93
2023-03-29T12:04:53.227Z,46.79
2023-03-29T12:07:19.776Z,46.72
2023-03-29T12:09:46.333Z,46.62
2023-03-29T12:12:12.907Z,46.75
2023-03-29T12:14:39.444Z,46.78
2023-03-29T12:17:06.004Z,47.03
2023-03-29T12:19:32.648Z,46.92
2023-03-29T12:21:59.201Z,47.05
2023-03-29T12:24:25.772Z,47.04
2023-03-29T12:26:52.323Z,47.23
2023-03-29T12:29:18.871Z,46.37
2023-03-29T12:31:45.436Z,45.58
2023-03-29T12:34:12.033Z,46.42
2023-03-29T12:36:38.579Z,45.70
2023-03-29T12:39:05.157Z,46.37
2023-03-29T12:41:31.693Z,46.32
2023-03-29T12:43:58.242Z,46.09
2023-03-29T12:46:24.812Z,46.50
2023-03-29T12:48:51.377Z,46.51
2023-03-29T12:51:17.943Z,46.33
2023-03-29T12:53:44.563Z,46.63
2023-03-29T12:56:11.119Z,46.74
2023-03-29T12:58:37.673Z,46.46
2023-03-29T13:01:05.811Z,46.28
2023-03-29T13:03:32.763Z,46.32
2023-03-29T13:05:59.307Z,46.20
2023-03-29T13:08:25.876Z,46.60
2023-03-29T13:10:52.443Z,46.69
2023-03-29T13:13:19.000Z,46.69
2023-03-29T13:15:45.589Z,46.22
2023-03-29T13:18:12.619Z,45.88
2023-03-29T13:20:39.325Z,46.35
2023-03-29T13:23:05.884Z,46.29
2023-03-29T13:25:32.474Z,46.11
2023-03-29T13:27:59.059Z,46.19
2023-03-29T13:30:25.606Z,46.13
2023-03-29T13:32:52.190Z,46.09
2023-03-29T13:35:18.740Z,46.22
2023-03-29T13:37:45.287Z,46.05
2023-03-29T13:40:11.868Z,46.07
2023-03-29T13:42:38.420Z,46.05
2023-03-29T13:45:04.975Z,46.08
2023-03-29T13:47:31.592Z,46.35
2023-03-29T13:49:58.148Z,46.26
2023-03-29T13:52:24.730Z,46.45
2023-03-29T13:54:51.333Z,46.38
2023-03-29T13:57:17.978Z,46.54
2023-03-29T13:59:44.573Z,45.66
2023-03-29T14:02:11.175Z,46.04
2023-03-29T14:04:37.810Z,45.51
2023-03-29T14:07:04.405Z,45.61
2023-03-29T14:09:30.960Z,45.29
2023-03-29T14:11:57.535Z,45.23
2023-03-29T14:14:24.103Z,45.48
2023-03-29T14:16:50.771Z,45.61
2023-03-29T14:19:17.396Z,45.59
2023-03-29T14:21:43.972Z,46.27
2023-03-29T14:24:10.600Z,45.76
2023-03-29T14:26:37.156Z,45.99
2023-03-29T14:29:03.725Z,46.13
2023-03-29T14:31:30.312Z,46.04
2023-03-29T14:33:56.894Z,46.19
2023-03-29T14:36:23.508Z,45.98
2023-03-29T14:38:50.126Z,46.09
2023-03-29T14:41:16.679Z,46.04
2023-03-29T14:43:43.237Z,46.34
2023-03-29T14:46:09.846Z,46.28
2023-03-29T14:48:36.387Z,46.65
2023-03-29T14:51:02.992Z,46.39
2023-03-29T14:53:29.561Z,46.50
2023-03-29T14:55:56.117Z,46.46
2023-03-29T14:58:22.698Z,47.02
2023-03-29T15:00:49.298Z,46.52
2023-03-29T15:03:15.988Z,46.55
2023-03-29T15:05:42.625Z,46.62
2023-03-29T15:08:09.264Z,46.80
2023-03-29T15:10:35.797Z,46.64
2023-03-29T15:13:02.340Z,46.77
2023-03-29T15:15:28.925Z,46.64
2023-03-29T15:17:55.502Z,46.87
2023-03-29T15:20:22.066Z,46.97
2023-03-29T15:22:48.614Z,46.95
2023-03-29T15:25:15.190Z,46.96
2023-03-29T15:27:41.757Z,46.70
2023-03-29T15:30:08.329Z,46.79
2023-03-29T15:32:34.916Z,47.00
2023-03-29T15:35:01.512Z,46.93
2023-03-29T15:37:28.059Z,46.92
2023-03-29T15:39:54.597Z,47.01
2023-03-29T15:42:21.186Z,47.14
2023-03-29T15:44:47.766Z,47.01
2023-03-29T15:47:14.312Z,46.83
2023-03-29T15:49:40.868Z,47.14
2023-03-29T15:52:07.432Z,46.86
2023-03-29T15:54:33.995Z,47.00
2023-03-29T15:57:00.626Z,47.10
2023-03-29T15:59:27.215Z,46.60
2023-03-29T16:01:53.811Z,46.68
2023-03-29T16:04:20.356Z,46.58
2023-03-29T16:06:46.971Z,46.95
2023-03-29T16:09:13.541Z,46.92
2023-03-29T16:11:40.091Z,46.73
2023-03-29T16:14:06.699Z,46.68
2023-03-29T16:16:33.300Z,46.78
2023-03-29T16:18:59.864Z,46.73
2023-03-29T16:21:26.400Z,46.70
2023-03-29T16:23:52.939Z,47.11
2023-03-29T16:26:19.503Z,47.32
2023-03-29T16:28:46.083Z,46.84
2023-03-29T16:31:12.732Z,46.58
2023-03-29T16:33:39.382Z,46.83
2023-03-29T16:36:06.282Z,47.12
2023-03-29T16:38:33.045Z,47.24
2023-03-29T16:40:59.626Z,46.93
2023-03-29T16:43:26.168Z,46.71
2023-03-29T16:45:52.779Z,47.97
2023-03-29T16:48:19.381Z,48.09
2023-03-29T16:50:45.981Z,47.50
2023-03-29T16:53:12.536Z,46.94
2023-03-29T16:55:39.092Z,46.59
2023-03-29T16:58:05.650Z,46.63
2023-03-29T17:00:32.236Z,47.41
2023-03-29T17:02:58.856Z,46.69
2023-03-29T17:05:25.433Z,48.06
2023-03-29T17:07:51.983Z,47.64
2023-03-29T17:10:18.544Z,48.15
2023-03-29T17:12:45.071Z,47.20
2023-03-29T17:15:11.611Z,47.42
2023-03-29T17:17:38.180Z,47.00
2023-03-29T17:20:04.747Z,46.99
2023-03-29T17:22:31.312Z,47.01
2023-03-29T17:24:57.871Z,46.97
2023-03-29T17:27:24.429Z,46.78
2023-03-29T17:29:50.996Z,46.49
2023-03-29T17:32:17.565Z,46.51
2023-03-29T17:34:44.124Z,46.68
2023-03-29T17:37:10.673Z,46.83
2023-03-29T17:39:37.324Z,46.81
2023-03-29T17:42:04.068Z,46.53
2023-03-29T17:44:30.608Z,46.57
2023-03-29T17:46:57.254Z,46.59
2023-03-29T17:49:23.810Z,46.58
2023-03-29T17:51:50.376Z,46.22
2023-03-29T17:54:16.957Z,46.51
2023-03-29T17:56:43.537Z,46.34
2023-03-29T17:59:10.101Z,46.17
2023-03-29T18:01:38.993Z,46.25
2023-03-29T18:04:05.862Z,46.44
2023-03-29T18:06:32.437Z,46.36
2023-03-29T18:08:59.019Z,46.45
2023-03-29T18:11:25.603Z,46.30
2023-03-29T18:13:52.179Z,46.29
2023-03-29T18:16:18.787Z,46.30
2023-03-29T18:18:46.278Z,46.32
2023-03-29T18:21:12.900Z,46.29
2023-03-29T18:23:39.480Z,46.31
2023-03-29T18:26:06.186Z,46.32
2023-03-29T18:28:32.954Z,46.30
2023-03-29T18:30:59.521Z,46.45
2023-03-29T18:33:26.087Z,46.25
2023-03-29T18:35:52.780Z,46.36
2023-03-29T18:38:19.385Z,46.38
2023-03-29T18:40:45.943Z,46.30
2023-03-29T18:43:12.496Z,46.34
2023-03-29T18:45:39.102Z,46.47
2023-03-29T18:48:05.735Z,46.43
2023-03-29T18:50:32.316Z,46.68
2023-03-29T18:52:58.872Z,46.59
2023-03-29T18:55:25.432Z,46.63
2023-03-29T18:57:51.968Z,46.60
2023-03-29T19:00:18.507Z,46.62
2023-03-29T19:02:45.131Z,46.29
2023-03-29T19:05:11.755Z,46.35
2023-03-29T19:07:38.311Z,46.63
2023-03-29T19:10:04.875Z,46.51
2023-03-29T19:12:31.418Z,46.55
2023-03-29T19:14:57.968Z,46.45
2023-03-29T19:17:24.541Z,46.44
2023-03-29T19:19:51.134Z,46.57
2023-03-29T19:22:17.695Z,46.55
2023-03-29T19:24:44.255Z,46.56
2023-03-29T19:27:12.555Z,46.42
2023-03-29T19:29:39.293Z,46.59
2023-03-29T19:32:05.836Z,46.46
2023-03-29T19:34:32.385Z,46.60
2023-03-29T19:36:58.964Z,46.59
2023-03-29T19:39:25.527Z,46.57
2023-03-29T19:41:52.119Z,46.50
2023-03-29T19:44:18.666Z,46.79
2023-03-29T19:46:45.244Z,46.66
2023-03-29T19:49:11.807Z,46.49
2023-03-29T19:51:38.364Z,46.48
2023-03-29T19:54:04.933Z,46.67
2023-03-29T19:56:31.478Z,46.72
2023-03-29T19:58:58.033Z,46.66
2023-03-29T20:01:24.625Z,46.80
2023-03-29T20:03:51.266Z,46.71
2023-03-29T20:06:18.055Z,46.66
2023-03-29T20:08:44.597Z,46.82
2023-03-29T20:11:11.177Z,46.76
2023-03-29T20:13:39.027Z,46.58
2023-03-29T20:16:05.785Z,46.89
2023-03-29T20:18:32.401Z,46.88
2023-03-29T20:20:58.959Z,46.64
2023-03-29T20:23:25.522Z,46.69
2023-03-29T20:25:52.088Z,46.65
2023-03-29T20:28:18.626Z,46.79
2023-03-29T20:30:45.178Z,46.71
2023-03-29T20:33:11.719Z,46.70
2023-03-29T20:35:38.375Z,46.40
2023-03-29T20:38:04.983Z,46.79
2023-03-29T20:40:31.545Z,46.77
2023-03-29T20:42:58.113Z,46.66
2023-03-29T20:45:24.678Z,46.56
2023-03-29T20:47:51.295Z,46.46
2023-03-29T20:50:17.924Z,46.55
2023-03-29T20:52:44.477Z,46.54
2023-03-29T20:55:11.046Z,46.59
2023-03-29T20:57:37.602Z,46.72
2023-03-29T21:00:04.222Z,46.63
2023-03-29T21:02:30.794Z,46.46
2023-03-29T21:04:57.380Z,46.57
2023-03-29T21:07:23.924Z,46.80
2023-03-29T21:09:50.487Z,46.72
2023-03-29T21:12:17.085Z,46.55
2023-03-29T21:14:43.662Z,46.52
2023-03-29T21:17:10.278Z,46.60
2023-03-29T21:19:36.848Z,46.78
2023-03-29T21:22:03.386Z,46.37
2023-03-29T21:24:29.956Z,46.49
2023-03-29T21:26:56.528Z,46.54
2023-03-29T21:29:23.131Z,46.59
2023-03-29T21:31:49.774Z,46.27
2023-03-29T21:34:16.341Z,46.54
2023-03-29T21:36:42.893Z,46.25
2023-03-29T21:39:09.441Z,46.29
2023-03-29T21:41:35.998Z,46.26
2023-03-29T21:44:02.553Z,46.44
2023-03-29T21:46:29.160Z,46.84
2023-03-29T21:48:55.762Z,46.59
2023-03-29T21:51:22.345Z,46.67
2023-03-29T21:53:48.927Z,46.51
2023-03-29T21:56:15.468Z,46.70
2023-03-29T21:58:42.054Z,46.68
2023-03-29T22:01:08.627Z,46.72
2023-03-29T22:03:35.198Z,46.64
2023-03-29T22:06:01.746Z,46.90
2023-03-29T22:08:28.283Z,46.80
2023-03-29T22:10:54.844Z,46.69
2023-03-29T22:13:21.399Z,47.27
2023-03-29T22:15:47.949Z,47.74
2023-03-29T22:18:14.497Z,47.82
2023-03-29T22:20:41.079Z,48.22
2023-03-29T22:23:07.632Z,48.08
2023-03-29T22:25:34.445Z,48.17
2023-03-29T22:28:00.989Z,47.86
2023-03-29T22:30:27.542Z,47.93
2023-03-29T22:32:54.159Z,48.23
2023-03-29T22:35:20.751Z,48.09
2023-03-29T22:37:47.307Z,48.17
2023-03-29T22:40:13.881Z,48.32
2023-03-29T22:42:40.458Z,48.31
2023-03-29T22:45:07.003Z,49.18
2023-03-29T22:47:33.573Z,49.75
2023-03-29T22:50:00.207Z,49.51
2023-03-29T22:52:26.771Z,49.25
2023-03-29T22:54:53.310Z,49.26
2023-03-29T22:57:19.924Z,49.28
2023-03-29T22:59:46.552Z,49.41
2023-03-29T23:02:13.104Z,49.31
2023-03-29T23:04:39.792Z,49.55
2023-03-29T23:07:06.389Z,49.27
2023-03-29T23:09:32.968Z,49.14
2023-03-29T23:11:59.550Z,49.10
2023-03-29T23:14:26.129Z,49.10
2023-03-29T23:16:52.700Z,49.02
2023-03-29T23:19:19.260Z,48.89
2023-03-29T23:21:45.792Z,49.09
2023-03-29T23:24:12.355Z,48.77
2023-03-29T23:26:38.892Z,48.65
2023-03-29T23:29:05.427Z,48.89
2023-03-29T23:31:31.990Z,48.95
2023-03-29T23:33:58.555Z,48.70
2023-03-29T23:36:25.096Z,48.77
2023-03-29T23:38:51.650Z,48.37
2023-03-29T23:41:18.190Z,48.26
2023-03-29T23:43:44.797Z,48.36
2023-03-29T23:46:11.401Z,48.47
2023-03-29T23:48:38.028Z,48.75
2023-03-29T23:51:04.731Z,48.60
2023-03-29T23:53:31.413Z,48.71
2023-03-29T23:55:57.973Z,48.80
2023-03-29T23:58:24.517Z,48.60
